Terminal Aerodrome Forecast
Issued by NWS

Home | Current Version | Previous Version | Text Only | Print | Product List | Glossary Off
Versions: 1 2 3 4 5 6 7 8 9 10 11 12 13

000
FTUS43 KMPX 302323
TAFAXN
TAF
KAXN 302323Z 3100/3124 18012KT P6SM SKC
     FM311500 20017G26KT P6SM SKC
     FM312200 21012KT P6SM SKC=

USA.gov is the U.S. government's official web portal to all federal, state and local government web resources and services.